Aviation Digital Data Service (ADDS)

Output produced by METARs form (0241 UTC 23 September 2018)
found at http://aviationweather.gov/metar/data/
 
KMCB 230239Z AUTO 00000KT 10SM FEW002 BKN110 23/22 A2999 RMK AO2 T02330217
KMCB 230153Z AUTO 00000KT 9SM BKN100 23/22 A2998 RMK AO2 RAE0056 SLP146 P0001 T02330217
KMCB 222324Z 2300/2324 16004KT P6SM VCSH SCT030 BKN090 
     TEMPO 2300/2302 3SM -TSRA BKN030CB 
     FM230600 00000KT P6SM BKN020 BKN200 
     FM231100 00000KT P6SM SCT020 BKN030 
     FM231400 VRB03KT P6SM SCT020 BKN035 
     FM231600 15005KT P6SM SCT020 BKN035 
     FM231800 16005KT P6SM SHRA VCTS SCT025CB BKN040